createdAt,value
2023-04-27T00:04:30.470Z,7.30
2023-04-27T00:14:34.363Z,7.40
2023-04-27T00:24:39.465Z,7.40
2023-04-27T00:34:43.048Z,7.20
2023-04-27T00:44:48.225Z,7.10
2023-04-27T00:54:53.248Z,7.00
2023-04-27T01:04:58.682Z,7.10
2023-04-27T01:15:02.286Z,6.90
2023-04-27T01:25:08.868Z,6.90
2023-04-27T01:35:12.579Z,6.60
2023-04-27T01:45:17.794Z,6.60
2023-04-27T01:55:21.708Z,6.50
2023-04-27T02:05:26.905Z,6.60
2023-04-27T02:15:30.996Z,6.60
2023-04-27T02:25:37.810Z,6.60
2023-04-27T02:35:41.405Z,6.50
2023-04-27T02:45:46.436Z,6.40
2023-04-27T02:55:50.759Z,6.20
2023-04-27T03:05:55.934Z,6.10
2023-04-27T03:15:59.578Z,6.00
2023-04-27T03:26:07.714Z,6.00
2023-04-27T03:36:11.701Z,5.90
2023-04-27T03:46:16.721Z,5.90
2023-04-27T03:56:20.684Z,5.90
2023-04-27T04:06:26.029Z,5.90
2023-04-27T04:16:29.716Z,5.90
2023-04-27T04:26:35.446Z,5.90
2023-04-27T04:36:39.045Z,5.80
2023-04-27T04:46:44.136Z,5.90
2023-04-27T04:56:47.728Z,5.70
2023-04-27T05:06:53.089Z,5.50
2023-04-27T05:16:56.742Z,5.40
2023-04-27T05:27:02.569Z,5.40
2023-04-27T05:37:06.365Z,5.70
2023-04-27T05:47:11.441Z,6.00
2023-04-27T05:57:15.366Z,6.20
2023-04-27T06:07:20.422Z,6.50
2023-04-27T06:17:24.318Z,6.60
2023-04-27T06:27:29.257Z,6.90
2023-04-27T06:37:32.961Z,7.30
2023-04-27T06:47:37.954Z,7.60
2023-04-27T06:57:41.687Z,7.80
2023-04-27T07:07:46.638Z,8.50
2023-04-27T07:17:50.314Z,9.00
2023-04-27T07:27:56.933Z,9.30
2023-04-27T07:38:02.732Z,9.50
2023-04-27T07:48:08.237Z,9.60
2023-04-27T07:58:12.081Z,10.10
2023-04-27T08:08:18.016Z,10.80
2023-04-27T08:18:21.722Z,10.80
2023-04-27T08:28:26.797Z,10.80
2023-04-27T08:38:30.521Z,11.00
2023-04-27T08:48:35.509Z,10.90
2023-04-27T08:58:39.755Z,11.20
2023-04-27T09:08:46.953Z,11.60
2023-04-27T09:18:50.629Z,12.20
2023-04-27T09:28:57.788Z,12.40
2023-04-27T09:39:05.309Z,12.40
2023-04-27T09:49:11.629Z,12.40
2023-04-27T09:59:37.264Z,12.90
2023-04-27T10:09:46.613Z,13.10
2023-04-27T10:19:59.095Z,13.10
2023-04-27T10:30:11.708Z,13.20
2023-04-27T10:40:17.539Z,13.50
2023-04-27T10:50:24.724Z,13.90
2023-04-27T11:00:30.796Z,14.50
2023-04-27T11:10:36.989Z,15.20
2023-04-27T11:20:40.780Z,15.30
2023-04-27T11:30:45.858Z,15.70
2023-04-27T11:41:01.111Z,15.80
2023-04-27T11:51:06.888Z,16.00
2023-04-27T12:01:11.971Z,16.10
2023-04-27T12:11:16.961Z,15.60
2023-04-27T12:21:21.271Z,16.00
2023-04-27T12:31:27.829Z,16.30
2023-04-27T12:41:31.586Z,16.50
2023-04-27T12:51:37.339Z,16.70
2023-04-27T13:01:41.176Z,16.40
2023-04-27T13:11:46.359Z,16.20
2023-04-27T13:21:50.257Z,16.20
2023-04-27T13:31:55.905Z,16.90
2023-04-27T13:41:59.738Z,16.30
2023-04-27T13:52:04.869Z,16.10
2023-04-27T14:02:09.342Z,15.70
2023-04-27T14:12:14.509Z,16.00
2023-04-27T14:22:18.193Z,16.20
2023-04-27T14:32:23.453Z,16.60
2023-04-27T14:42:27.156Z,16.50
2023-04-27T14:52:32.115Z,16.20
2023-04-27T15:02:35.847Z,16.50
2023-04-27T15:12:40.890Z,16.60
2023-04-27T15:22:44.523Z,16.80
2023-04-27T15:32:49.837Z,16.80
2023-04-27T15:42:53.524Z,17.20
2023-04-27T15:52:58.476Z,18.10
2023-04-27T16:03:02.410Z,18.10
2023-04-27T16:13:07.561Z,17.90
2023-04-27T16:23:11.223Z,17.70
2023-04-27T16:33:18.360Z,17.50
2023-04-27T16:43:23.736Z,17.40
2023-04-27T16:53:29.015Z,17.50
2023-04-27T17:03:36.083Z,17.40
2023-04-27T17:13:41.333Z,17.40
2023-04-27T17:23:46.523Z,16.70
2023-04-27T17:33:51.506Z,16.40
2023-04-27T17:43:55.183Z,16.20
2023-04-27T17:54:00.229Z,16.00
2023-04-27T18:04:05.665Z,15.80
2023-04-27T18:14:11.318Z,15.50
2023-04-27T18:24:15.044Z,15.40
2023-04-27T18:34:20.157Z,15.10
2023-04-27T18:44:23.947Z,14.80
2023-04-27T18:54:28.989Z,14.70
2023-04-27T19:04:34.232Z,14.50
2023-04-27T19:14:39.591Z,14.30
2023-04-27T19:24:43.711Z,13.90
2023-04-27T19:34:55.763Z,13.40
2023-04-27T19:45:00.820Z,13.10
2023-04-27T19:55:07.184Z,13.00
2023-04-27T20:05:11.434Z,12.70
2023-04-27T20:15:16.683Z,12.40
2023-04-27T20:25:20.824Z,12.30
2023-04-27T20:35:27.694Z,12.50
2023-04-27T20:45:31.979Z,12.50
2023-04-27T20:55:37.103Z,12.60
2023-04-27T21:05:41.438Z,12.50
2023-04-27T21:15:46.553Z,12.50
2023-04-27T21:25:50.172Z,12.20
2023-04-27T21:35:55.158Z,12.00
2023-04-27T21:46:01.971Z,12.00
2023-04-27T21:56:08.429Z,12.00
2023-04-27T22:06:12.461Z,11.60
2023-04-27T22:16:17.901Z,11.70
2023-04-27T22:26:21.541Z,11.80
2023-04-27T22:36:26.573Z,11.70
2023-04-27T22:46:30.449Z,11.80
2023-04-27T22:56:35.543Z,11.80
2023-04-27T23:06:39.174Z,11.70
2023-04-27T23:16:44.607Z,11.70
2023-04-27T23:26:48.363Z,11.60
2023-04-27T23:36:53.407Z,11.40
2023-04-27T23:47:00.192Z,11.50
2023-04-27T23:57:06.484Z,11.50
